Current | Forecast
Updated: 8:30 AM CEST on May 25, 2018
Observed at Vitoria, Spain
Temperature 13°C
Humidity 100%
Dew Point 13°C
Wind NE at 11 km/h
Pressure 1015 hPa (Falling)
Conditions Scattered Clouds
Visibility 10.0 kilometers
UV 1 out of 16
Clouds (FEW) : 304 m
Scattered Clouds (SCT) : 1371 m
Yesterday's Maximum 23°C
Yesterday's Minimum 12°C approx.
Yesterday's Heating Degree Days 2 approx.
Sunrise6:40 AM CEST
Sunset9:38 PM CEST
Moon Rise5:23 PM CEST
Moon Set4:47 AM CEST
Moon PhaseMoon Phase
Waxing Gibbous
Raw METARMETAR LEVT 250630Z 05006KT 020V090 9999 FEW010 SCT045 13/13 Q1015


Monday
. High: 75° F.
Tuesday
. High: 78° F.
Wednesday
. High: 64° F.
Thursday
. High: 66° F.
Friday
. High: 77° F.
Saturday
. High: 78° F.
Sunday
. High: 69° F.
Monday
. High: 82° F.

Click here for Marine Information
Scientific forecaster discussion (NWS)

Units: English | Metric

Find the Weather for any City, State or Zipcode, or Country:

U.S. State List | Severe Weather | Tropical Storms | Ski Conditions
United States | Canada | Central America | South America | Asia | Europe | Australia | Africa | Islands

Weather Underground

© Copyright 2018
The Weather Company, LLC